CheckWX is a tool to help pilots better visualize weather data.  It is not intended as a substitute for an official pre-flight weather briefing.

08:26:55 UTC

RCSS METAR
Taipei Songshan Airport
Taipei City, Taiwan
Current

27 mins ago

RCSS 090800Z 26014KT 9999 FEW020 SCT040 BKN150 34/27 Q1001 NOSIG RMK 26011KT/R10 A2958
Observed
Jul-9 @ 08:00 UTC
Wind
  • 260° at 14 KTS
Visibility
10,000+ meters
Flight Rules
VFR
Cloud Levels
  • Few at 2,000' AGL
  • Scattered at 4,000' AGL
  • Broken at 15,000' AGL
Temperature
34°C / 93°F
Dewpoint
27°C / 81°F
Humidity
67%
Altimeter
29.56" Hg
Pressure
1000.92 hPa
Previous

57 mins ago

RCSS 090730Z 27012KT 240V300 9999 FEW025 SCT045 BKN150 34/27 Q1002 NOSIG RMK 26009KT/R10 A2959
Observed
Jul-9 @ 07:30 UTC
Wind
  • 270° at 12 KTS
Visibility
10,000+ meters
Flight Rules
VFR
Cloud Levels
  • Few at 2,500' AGL
  • Scattered at 4,500' AGL
  • Broken at 15,000' AGL
Temperature
34°C / 93°F
Dewpoint
27°C / 81°F
Humidity
67%
Altimeter
29.59" Hg
Pressure
1001.92 hPa
Previous

1 hour ago

RCSS 090700Z 27009KT 9999 FEW025 SCT045 BKN180 34/27 Q1001 NOSIG RMK 27008KT/R10 A2958
Observed
Jul-9 @ 07:00 UTC
Wind
  • 270° at 9 KTS
Visibility
10,000+ meters
Flight Rules
VFR
Cloud Levels
  • Few at 2,500' AGL
  • Scattered at 4,500' AGL
  • Broken at 18,000' AGL
Temperature
34°C / 93°F
Dewpoint
27°C / 81°F
Humidity
67%
Altimeter
29.56" Hg
Pressure
1000.92 hPa